KILM/ILM METAR and TAF weather

Enter ICAO airport designator
Station Type Date Time Source
KILM METAR 2019/10/23 07:53 UTC NOAA

KILM 230753Z 30008KT 10SM CLR 17/10 A2994 RMK AO2 SLP140 T01670100


Station Type Date Time Source
KILM Decoded METAR 2019/10/23 07:53 UTC NOAA

WILMINGTON INT'L AIRPORT, NC, United States (KILM) 34-16N 077-54W 9M
Oct 23, 2019 - 03:53 AM EDT / 2019.10.23 0753 UTC
Wind: from the WNW (300 degrees) at 9 MPH (8 KT):0
Visibility: 10 mile(s):0
Sky conditions: clear
Temperature: 62.1 F (16.7 C)
Dew Point: 50.0 F (10.0 C)
Relative Humidity: 64%
Pressure (altimeter): 29.94 in. Hg (1013 hPa)
ob: KILM 230753Z 30008KT 10SM CLR 17/10 A2994 RMK AO2 SLP140 T01670100
cycle: 8

Station Type Date Time Source
KILM TAF 2019/10/23 06:42 UTC NOAA

TAF KILM 230540Z 2306/2406 28007KT P6SM SCT030
FM230900 31007KT P6SM SKC
FM231400 34010G15KT P6SM SKC
FM232300 00000KT P6SM SKC

Example: see airport list